createdAt,value
2023-11-17T00:02:01.933Z,99409.78
2023-11-17T00:04:29.158Z,99415.06
2023-11-17T00:06:56.658Z,99424.91
2023-11-17T00:09:24.022Z,99424.78
2023-11-17T00:11:51.218Z,99420.06
2023-11-17T00:14:18.563Z,99424.63
2023-11-17T00:16:46.544Z,99425.59
2023-11-17T00:19:13.981Z,99423.50
2023-11-17T00:21:41.429Z,99427.69
2023-11-17T00:24:10.628Z,99438.91
2023-11-17T00:26:38.020Z,99441.50
2023-11-17T00:29:08.029Z,99450.16
2023-11-17T00:31:35.143Z,99440.41
2023-11-17T00:34:02.939Z,99446.94
2023-11-17T00:36:30.311Z,99450.41
2023-11-17T00:38:57.477Z,99455.69
2023-11-17T00:41:30.472Z,99462.63
2023-11-17T00:43:59.138Z,99462.03
2023-11-17T00:46:26.533Z,99458.59
2023-11-17T00:48:53.735Z,99455.13
2023-11-17T00:51:23.120Z,99460.03
2023-11-17T00:53:50.283Z,99455.69
2023-11-17T00:56:19.033Z,99461.09
2023-11-17T00:58:47.323Z,99453.16
2023-11-17T01:01:14.618Z,99461.09
2023-11-17T01:03:42.033Z,99467.22
2023-11-17T01:06:09.278Z,99459.16
2023-11-17T01:08:36.365Z,99457.25
2023-11-17T01:11:04.165Z,99455.13
2023-11-17T01:13:31.347Z,99458.34
2023-11-17T01:15:58.876Z,99460.97
2023-11-17T01:18:26.089Z,99469.13
2023-11-17T01:20:53.165Z,99469.97
2023-11-17T01:23:20.231Z,99471.63
2023-11-17T01:25:47.501Z,99466.97
2023-11-17T01:28:14.732Z,99474.97
2023-11-17T01:30:42.139Z,99473.06
2023-11-17T01:33:11.416Z,99480.16
2023-11-17T01:35:39.608Z,99473.84
2023-11-17T01:38:06.875Z,99485.09
2023-11-17T01:40:34.159Z,99484.97
2023-11-17T01:43:12.885Z,99484.38
2023-11-17T01:45:41.217Z,99485.88
2023-11-17T01:48:08.928Z,99495.19
2023-11-17T01:50:36.951Z,99501.19
2023-11-17T01:53:04.838Z,99499.75
2023-11-17T01:55:31.979Z,99498.19
2023-11-17T01:58:02.484Z,99507.78
2023-11-17T02:00:29.786Z,99501.69
2023-11-17T02:02:57.262Z,99503.34
2023-11-17T02:05:26.161Z,99504.31
2023-11-17T02:08:52.366Z,99503.81
2023-11-17T02:11:25.776Z,99504.66
2023-11-17T02:14:06.702Z,99510.50
2023-11-17T02:16:37.583Z,99512.66
2023-11-17T02:19:16.657Z,99513.25
2023-11-17T02:21:45.681Z,99516.84
2023-11-17T02:24:16.133Z,99523.78
2023-11-17T02:27:08.489Z,99528.75
2023-11-17T02:29:39.770Z,99531.19
2023-11-17T02:32:07.601Z,99521.72
2023-11-17T02:34:35.621Z,99530.50
2023-11-17T02:37:07.047Z,99526.44
2023-11-17T02:39:41.219Z,99533.13
2023-11-17T02:42:15.004Z,99530.47
2023-11-17T02:44:42.698Z,99536.56
2023-11-17T02:47:10.655Z,99536.47
2023-11-17T02:49:44.006Z,99537.88
2023-11-17T02:52:27.651Z,99539.69
2023-11-17T02:54:57.056Z,99545.06
2023-11-17T02:57:26.716Z,99543.91
2023-11-17T02:59:55.180Z,99549.44
2023-11-17T03:02:23.298Z,99550.41
2023-11-17T03:04:55.782Z,99551.34
2023-11-17T03:07:23.230Z,99554.47
2023-11-17T03:09:53.598Z,99560.22
2023-11-17T03:12:21.347Z,99557.59
2023-11-17T03:14:48.898Z,99575.66
2023-11-17T03:17:16.480Z,99567.63
2023-11-17T03:19:44.157Z,99570.38
2023-11-17T03:22:15.297Z,99571.94
2023-11-17T03:24:42.867Z,99580.56
2023-11-17T03:27:10.074Z,99570.59
2023-11-17T03:29:38.646Z,99570.84
2023-11-17T03:32:08.985Z,99578.75
2023-11-17T03:34:36.520Z,99572.88
2023-11-17T03:37:05.581Z,99578.16
2023-11-17T03:39:34.590Z,99575.03
2023-11-17T03:42:03.173Z,99576.13
2023-11-17T03:44:30.396Z,99576.13
2023-11-17T03:46:59.685Z,99577.94
2023-11-17T03:49:29.828Z,99585.75
2023-11-17T03:51:57.369Z,99586.50
2023-11-17T03:54:24.808Z,99585.28
2023-11-17T03:56:54.138Z,99579.09
2023-11-17T03:59:23.246Z,99581.81
2023-11-17T04:01:54.096Z,99578.69
2023-11-17T04:04:21.637Z,99580.13
2023-11-17T04:06:53.309Z,99582.63
2023-11-17T04:09:25.476Z,99594.59
2023-11-17T04:11:54.512Z,99601.22
2023-11-17T04:14:23.286Z,99585.78
2023-11-17T04:16:52.609Z,99599.78
2023-11-17T04:19:21.585Z,99594.75
2023-11-17T04:21:50.937Z,99603.38
2023-11-17T04:24:18.872Z,99601.63
2023-11-17T04:26:47.896Z,99611.34
2023-11-17T04:29:15.752Z,99602.13
2023-11-17T04:31:43.652Z,99608.22
2023-11-17T04:34:14.157Z,99610.84
2023-11-17T04:36:41.398Z,99609.63
2023-11-17T04:39:18.322Z,99618.75
2023-11-17T04:41:46.580Z,99622.13
2023-11-17T04:44:14.350Z,99620.19
2023-11-17T04:46:41.657Z,99626.41
2023-11-17T04:49:08.791Z,99618.03
2023-11-17T04:51:36.590Z,99629.03
2023-11-17T04:54:03.676Z,99630.59
2023-11-17T04:56:31.645Z,99635.75
2023-11-17T04:58:58.812Z,99627.97
2023-11-17T05:01:26.135Z,99634.78
2023-11-17T05:03:53.543Z,99634.09
2023-11-17T05:06:24.870Z,99645.53
2023-11-17T05:08:52.152Z,99649.38
2023-11-17T05:11:19.423Z,99648.19
2023-11-17T05:13:46.501Z,99651.06
2023-11-17T05:16:15.532Z,99651.44
2023-11-17T05:18:49.194Z,99664.00
2023-11-17T05:21:16.917Z,99662.81
2023-11-17T05:23:44.088Z,99670.47
2023-11-17T05:26:12.155Z,99679.44
2023-11-17T05:28:40.857Z,99680.38
2023-11-17T05:31:08.563Z,99681.94
2023-11-17T05:33:35.691Z,99692.66
2023-11-17T05:36:03.705Z,99678.25
2023-11-17T05:38:30.986Z,99686.47
2023-11-17T05:40:58.470Z,99681.78
2023-11-17T05:43:25.682Z,99684.41
2023-11-17T05:45:52.829Z,99690.28
2023-11-17T05:48:19.871Z,99690.88
2023-11-17T05:50:46.980Z,99698.84
2023-11-17T05:53:14.012Z,99704.59
2023-11-17T05:55:41.725Z,99705.22
2023-11-17T05:58:09.163Z,99701.34
2023-11-17T06:00:36.420Z,99701.19
2023-11-17T06:03:03.690Z,99713.50
2023-11-17T06:05:31.044Z,99718.91
2023-11-17T06:07:58.359Z,99713.63
2023-11-17T06:10:25.599Z,99717.22
2023-11-17T06:12:52.734Z,99710.25
2023-11-17T06:15:28.573Z,99715.50
2023-11-17T06:17:57.112Z,99721.47
2023-11-17T06:20:25.166Z,99724.97
2023-11-17T06:22:52.423Z,99717.41
2023-11-17T06:25:19.595Z,99722.50
2023-11-17T06:27:51.171Z,99725.16
2023-11-17T06:30:18.507Z,99731.00
2023-11-17T06:32:45.807Z,99725.56
2023-11-17T06:35:15.183Z,99736.16
2023-11-17T06:37:42.300Z,99731.41
2023-11-17T06:40:11.514Z,99731.03
2023-11-17T06:42:41.420Z,99729.72
2023-11-17T06:45:10.697Z,99734.88
2023-11-17T06:47:39.228Z,99745.84
2023-11-17T06:50:06.963Z,99732.34
2023-11-17T06:52:34.342Z,99739.38
2023-11-17T06:55:02.059Z,99745.66
2023-11-17T06:57:31.009Z,99736.81
2023-11-17T06:59:58.061Z,99739.19
2023-11-17T07:02:26.110Z,99750.81
2023-11-17T07:04:54.495Z,99743.91
2023-11-17T07:07:21.855Z,99736.78
2023-11-17T07:09:48.949Z,99743.34
2023-11-17T07:12:16.440Z,99742.09
2023-11-17T07:14:43.530Z,99746.22
2023-11-17T07:17:11.148Z,99745.78
2023-11-17T07:19:38.519Z,99744.19
2023-11-17T07:22:05.750Z,99747.31
2023-11-17T07:24:33.441Z,99756.56
2023-11-17T07:27:02.855Z,99749.00
2023-11-17T07:29:33.606Z,99754.25
2023-11-17T07:32:00.851Z,99753.72
2023-11-17T07:34:28.033Z,99750.00
2023-11-17T07:36:55.822Z,99765.00
2023-11-17T07:39:24.954Z,99768.72
2023-11-17T07:41:52.444Z,99787.59
2023-11-17T07:44:23.326Z,99780.19
2023-11-17T07:46:51.066Z,99771.03
2023-11-17T07:49:21.556Z,99778.16
2023-11-17T07:51:49.960Z,99784.69
2023-11-17T07:54:18.483Z,99772.03
2023-11-17T07:56:48.587Z,99786.06
2023-11-17T07:59:20.642Z,99788.94
2023-11-17T08:01:48.379Z,99791.88
2023-11-17T08:04:19.188Z,99787.38
2023-11-17T08:06:50.936Z,99794.66
2023-11-17T08:09:18.619Z,99806.81
2023-11-17T08:11:49.412Z,99805.41
2023-11-17T08:14:16.860Z,99799.53
2023-11-17T08:16:43.993Z,99810.47
2023-11-17T08:19:22.007Z,99818.78
2023-11-17T08:21:56.110Z,99818.91
2023-11-17T08:24:24.590Z,99815.63
2023-11-17T08:26:52.819Z,99814.06
2023-11-17T08:29:22.739Z,99825.56
2023-11-17T08:31:52.405Z,99827.59
2023-11-17T08:34:20.164Z,99825.03
2023-11-17T08:36:47.544Z,99822.47
2023-11-17T08:39:27.334Z,99826.56
2023-11-17T08:41:58.894Z,99824.56
2023-11-17T08:44:28.587Z,99826.19
2023-11-17T08:46:56.100Z,99828.41
2023-11-17T08:49:23.378Z,99828.34
2023-11-17T08:51:51.863Z,99817.19
2023-11-17T08:54:19.613Z,99819.84
2023-11-17T08:56:50.011Z,99832.81
2023-11-17T08:59:18.147Z,99828.03
2023-11-17T09:01:45.982Z,99825.06
2023-11-17T09:04:13.988Z,99830.84
2023-11-17T09:06:41.617Z,99834.56
2023-11-17T09:09:24.403Z,99833.72
2023-11-17T09:12:01.073Z,99836.84
2023-11-17T09:14:32.436Z,99837.22
2023-11-17T09:17:08.732Z,99836.97
2023-11-17T09:19:39.248Z,99837.44
2023-11-17T09:22:06.633Z,99846.00
2023-11-17T09:24:34.042Z,99846.97
2023-11-17T09:27:01.171Z,99847.31
2023-11-17T09:29:30.139Z,99850.34
2023-11-17T09:31:57.352Z,99848.38
2023-11-17T09:34:34.467Z,99854.63
2023-11-17T09:37:03.520Z,99853.06
2023-11-17T09:39:30.724Z,99859.78
2023-11-17T09:42:00.582Z,99856.31
2023-11-17T09:44:30.062Z,99853.31
2023-11-17T09:47:26.722Z,99853.31
2023-11-17T09:49:55.645Z,99866.66
2023-11-17T09:52:23.856Z,99869.38
2023-11-17T09:54:51.615Z,99871.19
2023-11-17T09:57:20.023Z,99879.94
2023-11-17T09:59:50.226Z,99875.63
2023-11-17T10:02:22.373Z,99870.13
2023-11-17T10:04:53.708Z,99865.78
2023-11-17T10:07:23.396Z,99875.72
2023-11-17T10:09:51.104Z,99883.78
2023-11-17T10:12:18.981Z,99889.78
2023-11-17T10:14:46.598Z,99879.47
2023-11-17T10:17:19.202Z,99878.50
2023-11-17T10:19:47.803Z,99884.50
2023-11-17T10:22:15.246Z,99882.47
2023-11-17T10:24:42.737Z,99884.50
2023-11-17T10:27:10.085Z,99878.75
2023-11-17T10:29:38.116Z,99891.47
2023-11-17T10:32:22.907Z,99873.22
2023-11-17T10:35:26.051Z,99890.50
2023-11-17T10:37:57.074Z,99895.41
2023-11-17T10:40:33.216Z,99897.94
2023-11-17T10:43:15.725Z,99901.50
2023-11-17T10:45:45.162Z,99911.13
2023-11-17T10:48:17.661Z,99906.31
2023-11-17T10:50:45.295Z,99906.31
2023-11-17T10:53:21.747Z,99909.69
2023-11-17T10:55:50.651Z,99905.94
2023-11-17T10:58:17.918Z,99906.19
2023-11-17T11:00:46.811Z,99903.16
2023-11-17T11:03:17.233Z,99907.84
2023-11-17T11:05:46.420Z,99911.91
2023-11-17T11:08:19.240Z,99901.47
2023-11-17T11:10:56.222Z,99914.66
2023-11-17T11:13:30.862Z,99911.09
2023-11-17T11:16:08.972Z,99912.97
2023-11-17T11:18:37.030Z,99918.63
2023-11-17T11:21:09.160Z,99919.00
2023-11-17T11:23:37.917Z,99923.53
2023-11-17T11:26:06.995Z,99926.91
2023-11-17T11:28:34.328Z,99927.47
2023-11-17T11:31:07.501Z,99933.56
2023-11-17T11:33:35.028Z,99931.41
2023-11-17T11:36:02.321Z,99931.75
2023-11-17T11:38:32.365Z,99929.13
2023-11-17T11:41:00.211Z,99938.81
2023-11-17T11:43:29.384Z,99936.06
2023-11-17T11:45:58.099Z,99940.72
2023-11-17T11:48:27.125Z,99937.13
2023-11-17T11:50:56.256Z,99937.50
2023-11-17T11:53:34.326Z,99947.06
2023-11-17T11:56:13.385Z,99944.16
2023-11-17T11:58:45.407Z,99952.41
2023-11-17T12:01:15.812Z,99957.91
2023-11-17T12:03:47.181Z,99950.97
2023-11-17T12:06:25.233Z,99957.28
2023-11-17T12:09:00.019Z,99959.56
2023-11-17T12:11:36.498Z,99967.38
2023-11-17T12:14:10.984Z,99966.56
2023-11-17T12:16:38.161Z,99962.84
2023-11-17T12:19:06.830Z,99971.91
2023-11-17T12:21:40.496Z,99972.28
2023-11-17T12:24:08.946Z,99974.28
2023-11-17T12:26:38.832Z,99975.00
2023-11-17T12:29:06.074Z,99979.44
2023-11-17T12:31:33.365Z,99980.31
2023-11-17T12:34:00.744Z,99982.56
2023-11-17T12:36:27.960Z,99991.47
2023-11-17T12:39:08.166Z,99998.25
2023-11-17T12:41:36.773Z,100006.66
2023-11-17T12:44:13.465Z,99998.75
2023-11-17T12:46:45.804Z,100004.47
2023-11-17T12:49:15.657Z,100012.38
2023-11-17T12:51:44.630Z,100016.28
2023-11-17T12:54:17.671Z,100016.28
2023-11-17T12:56:45.549Z,100021.50
2023-11-17T12:59:13.053Z,100016.22
2023-11-17T13:01:40.926Z,100018.34
2023-11-17T13:04:10.373Z,100018.13
2023-11-17T13:06:37.804Z,100028.47
2023-11-17T13:09:11.076Z,100030.66
2023-11-17T13:11:48.487Z,100029.69
2023-11-17T13:14:22.334Z,100031.63
2023-11-17T13:16:49.954Z,100031.38
2023-11-17T13:19:21.709Z,100027.59
2023-11-17T13:21:49.920Z,100033.91
2023-11-17T13:24:18.724Z,100030.94
2023-11-17T13:26:47.251Z,100042.66
2023-11-17T13:29:15.183Z,100041.69
2023-11-17T13:31:43.362Z,100042.22
2023-11-17T13:34:15.815Z,100040.75
2023-11-17T13:36:47.376Z,100037.38
2023-11-17T13:39:14.753Z,100034.97
2023-11-17T13:41:44.352Z,100039.81
2023-11-17T13:44:24.671Z,100046.97
2023-11-17T13:47:04.401Z,100043.84
2023-11-17T13:49:36.049Z,100043.63
2023-11-17T13:52:11.310Z,100048.66
2023-11-17T13:54:39.082Z,100047.50
2023-11-17T13:57:10.169Z,100053.72
2023-11-17T13:59:38.612Z,100054.66
2023-11-17T14:02:10.817Z,100055.94
2023-11-17T14:04:39.312Z,100060.34
2023-11-17T14:07:08.416Z,100060.59
2023-11-17T14:09:36.134Z,100054.34
2023-11-17T14:12:19.769Z,100056.47
2023-11-17T14:14:46.996Z,100054.16
2023-11-17T14:17:15.206Z,100053.34
2023-11-17T14:19:45.414Z,100060.28
2023-11-17T14:22:15.262Z,100058.38
2023-11-17T14:24:42.583Z,100065.31
2023-11-17T14:27:12.300Z,100063.22
2023-11-17T14:29:43.453Z,100058.16
2023-11-17T14:32:11.437Z,100063.44
2023-11-17T14:34:38.626Z,100059.72
2023-11-17T14:37:06.661Z,100063.88
2023-11-17T14:39:35.329Z,100065.13
2023-11-17T14:42:03.138Z,100064.91
2023-11-17T14:44:30.843Z,100059.66
2023-11-17T14:46:58.238Z,100057.53
2023-11-17T14:49:28.698Z,100063.41
2023-11-17T14:52:04.875Z,100075.44
2023-11-17T14:54:32.874Z,100067.75
2023-11-17T14:57:00.224Z,100077.31
2023-11-17T14:59:27.569Z,100076.50
2023-11-17T15:01:54.918Z,100081.53
2023-11-17T15:04:22.853Z,100085.22
2023-11-17T15:06:51.654Z,100089.31
2023-11-17T15:09:18.900Z,100089.31
2023-11-17T15:11:46.116Z,100086.81
2023-11-17T15:14:18.936Z,100096.09
2023-11-17T15:16:47.239Z,100103.44
2023-11-17T15:19:17.530Z,100105.53
2023-11-17T15:21:45.317Z,100090.38
2023-11-17T15:24:23.139Z,100101.94
2023-11-17T15:26:53.589Z,100101.94
2023-11-17T15:29:31.945Z,100095.19
2023-11-17T15:32:07.863Z,100110.44
2023-11-17T15:34:35.547Z,100107.28
2023-11-17T15:37:04.230Z,100111.66
2023-11-17T15:39:32.237Z,100109.44
2023-11-17T15:41:59.676Z,100114.09
2023-11-17T15:44:26.954Z,100122.13
2023-11-17T15:46:54.462Z,100113.81
2023-11-17T15:49:24.209Z,100117.72
2023-11-17T15:51:52.490Z,100116.19
2023-11-17T15:54:19.660Z,100113.00
2023-11-17T15:56:47.803Z,100116.28
2023-11-17T15:59:15.460Z,100122.91
2023-11-17T16:01:45.216Z,100126.91
2023-11-17T16:04:13.496Z,100124.06
2023-11-17T16:06:41.445Z,100127.84
2023-11-17T16:09:11.703Z,100130.69
2023-11-17T16:11:41.579Z,100129.53
2023-11-17T16:14:16.261Z,100123.88
2023-11-17T16:16:43.743Z,100124.91
2023-11-17T16:19:11.683Z,100128.06
2023-11-17T16:21:40.159Z,100131.22
2023-11-17T16:24:07.969Z,100130.19
2023-11-17T16:26:35.287Z,100132.59
2023-11-17T16:29:02.704Z,100129.13
2023-11-17T16:31:30.199Z,100109.84
2023-11-17T16:33:57.632Z,100133.97
2023-11-17T16:36:28.446Z,100131.22
2023-11-17T16:38:55.630Z,100137.25
2023-11-17T16:41:22.767Z,100135.03
2023-11-17T16:43:53.124Z,100144.38
2023-11-17T16:46:22.312Z,100146.41
2023-11-17T16:48:53.757Z,100144.72
2023-11-17T16:51:20.997Z,100151.03
2023-11-17T16:53:48.242Z,100151.78
2023-11-17T16:56:16.066Z,100152.28
2023-11-17T16:58:45.432Z,100156.28
2023-11-17T17:01:15.566Z,100156.69
2023-11-17T17:03:43.433Z,100164.06
2023-11-17T17:06:15.904Z,100170.19
2023-11-17T17:08:53.985Z,100167.56
2023-11-17T17:11:47.787Z,100170.00
2023-11-17T17:14:21.453Z,100172.09
2023-11-17T17:17:05.274Z,100180.72
2023-11-17T17:19:38.117Z,100173.75
2023-11-17T17:22:08.023Z,100171.25
2023-11-17T17:24:38.021Z,100176.19
2023-11-17T17:27:08.409Z,100174.59
2023-11-17T17:29:48.745Z,100176.50
2023-11-17T17:32:16.549Z,100168.81
2023-11-17T17:34:45.805Z,100183.34
2023-11-17T17:37:22.104Z,100171.25
2023-11-17T17:39:51.973Z,100182.69
2023-11-17T17:42:25.644Z,100182.81
2023-11-17T17:44:55.992Z,100178.19
2023-11-17T17:47:31.352Z,100180.19
2023-11-17T17:50:05.356Z,100178.50
2023-11-17T17:52:38.449Z,100184.28
2023-11-17T17:55:06.995Z,100183.56
2023-11-17T17:57:35.802Z,100182.41
2023-11-17T18:00:26.607Z,100175.34
2023-11-17T18:03:08.411Z,100192.28
2023-11-17T18:05:36.083Z,100181.84
2023-11-17T18:08:09.687Z,100181.78
2023-11-17T18:10:36.975Z,100187.84
2023-11-17T18:13:04.260Z,100185.72
2023-11-17T18:15:35.726Z,100191.78
2023-11-17T18:18:15.256Z,100177.31
2023-11-17T18:20:42.592Z,100188.31
2023-11-17T18:23:11.104Z,100196.50
2023-11-17T18:25:44.090Z,100192.47
2023-11-17T18:28:13.233Z,100197.53
2023-11-17T18:30:41.681Z,100195.47
2023-11-17T18:33:09.091Z,100197.69
2023-11-17T18:35:48.466Z,100202.63
2023-11-17T18:38:18.069Z,100203.25
2023-11-17T18:40:47.698Z,100197.66
2023-11-17T18:43:18.824Z,100203.56
2023-11-17T18:46:00.510Z,100217.91
2023-11-17T18:48:30.791Z,100217.16
2023-11-17T18:50:58.364Z,100205.19
2023-11-17T18:53:33.405Z,100208.38
2023-11-17T18:56:01.705Z,100213.66
2023-11-17T18:58:29.738Z,100209.41
2023-11-17T19:00:59.792Z,100210.94
2023-11-17T19:05:54.805Z,100212.63
2023-11-17T19:08:22.047Z,100211.78
2023-11-17T19:10:50.533Z,100217.16
2023-11-17T19:13:18.099Z,100216.22
2023-11-17T19:16:03.076Z,100218.84
2023-11-17T19:18:32.245Z,100226.03
2023-11-17T19:21:00.124Z,100219.38
2023-11-17T19:23:28.016Z,100228.75
2023-11-17T19:25:55.348Z,100224.25
2023-11-17T19:31:23.974Z,100222.44
2023-11-17T19:33:51.410Z,100233.38
2023-11-17T19:40:52.530Z,100222.09
2023-11-17T19:44:49.734Z,100241.47
2023-11-17T19:47:44.418Z,100238.72
2023-11-17T19:55:30.348Z,100199.66
2023-11-17T19:58:12.469Z,100238.13
2023-11-17T20:00:54.328Z,100210.91
2023-11-17T20:04:12.971Z,100218.97
2023-11-17T20:07:31.495Z,100203.91
2023-11-17T20:10:42.522Z,100219.88
2023-11-17T20:13:39.688Z,100241.94
2023-11-17T20:16:26.388Z,100228.34
2023-11-17T20:18:58.473Z,100214.22
2023-11-17T20:22:11.384Z,100243.88
2023-11-17T20:32:25.657Z,100244.50
2023-11-17T20:34:52.862Z,100252.59
2023-11-17T20:37:19.967Z,100258.63
2023-11-17T20:39:47.108Z,100262.31
2023-11-17T20:42:14.292Z,100264.03
2023-11-17T20:44:41.695Z,100259.88
2023-11-17T20:47:09.240Z,100254.63
2023-11-17T20:49:37.305Z,100260.81
2023-11-17T20:52:07.071Z,100253.63
2023-11-17T20:54:34.455Z,100264.53
2023-11-17T20:57:01.948Z,100268.56
2023-11-17T20:59:29.110Z,100272.03
2023-11-17T21:01:57.407Z,100276.50
2023-11-17T21:04:27.471Z,100277.03
2023-11-17T21:06:54.902Z,100278.13
2023-11-17T21:09:23.804Z,100280.66
2023-11-17T21:11:51.319Z,100277.88
2023-11-17T21:14:18.626Z,100276.75
2023-11-17T21:16:46.984Z,100282.00
2023-11-17T21:19:14.392Z,100288.50
2023-11-17T21:21:44.959Z,100293.41
2023-11-17T21:24:22.751Z,100290.56
2023-11-17T21:26:55.023Z,100294.75
2023-11-17T21:29:24.225Z,100301.88
2023-11-17T21:31:53.376Z,100299.94
2023-11-17T21:34:20.959Z,100296.66
2023-11-17T21:36:50.164Z,100294.75
2023-11-17T21:39:21.150Z,100307.69
2023-11-17T21:41:49.633Z,100306.97
2023-11-17T21:44:22.271Z,100306.28
2023-11-17T21:46:51.533Z,100299.44
2023-11-17T21:49:18.924Z,100305.34
2023-11-17T21:51:46.281Z,100297.56
2023-11-17T21:54:13.349Z,100300.16
2023-11-17T21:56:40.880Z,100309.66
2023-11-17T21:59:08.220Z,100304.41
2023-11-17T22:01:35.502Z,100314.81
2023-11-17T22:04:06.324Z,100318.28
2023-11-17T22:06:33.597Z,100311.44
2023-11-17T22:09:00.604Z,100313.09
2023-11-17T22:11:27.839Z,100307.03
2023-11-17T22:13:55.042Z,100313.28
2023-11-17T22:16:22.230Z,100310.50
2023-11-17T22:18:50.297Z,100305.25
2023-11-17T22:21:17.637Z,100304.50
2023-11-17T22:23:44.720Z,100307.03
2023-11-17T22:26:15.332Z,100308.91
2023-11-17T22:28:42.505Z,100306.34
2023-11-17T22:31:09.710Z,100304.66
2023-11-17T22:33:36.920Z,100301.88
2023-11-17T22:36:04.942Z,100304.66
2023-11-17T22:38:32.044Z,100308.41
2023-11-17T22:40:59.225Z,100304.16
2023-11-17T22:43:26.330Z,100308.19
2023-11-17T22:45:53.500Z,100303.22
2023-11-17T22:48:20.707Z,100296.19
2023-11-17T22:50:47.774Z,100295.34
2023-11-17T22:53:14.905Z,100299.44
2023-11-17T22:55:42.040Z,100292.66
2023-11-17T22:58:11.558Z,100295.28
2023-11-17T23:00:38.731Z,100307.34
2023-11-17T23:03:09.873Z,100310.13
2023-11-17T23:05:38.374Z,100296.03
2023-11-17T23:08:06.728Z,100296.19
2023-11-17T23:10:34.197Z,100306.69
2023-11-17T23:13:01.999Z,100309.47
2023-11-17T23:15:30.254Z,100307.78
2023-11-17T23:17:59.875Z,100309.41
2023-11-17T23:20:28.538Z,100317.31
2023-11-17T23:22:57.426Z,100309.41
2023-11-17T23:25:26.123Z,100306.69
2023-11-17T23:27:53.888Z,100308.56
2023-11-17T23:30:21.330Z,100313.84
2023-11-17T23:32:49.254Z,100320.03
2023-11-17T23:35:16.921Z,100314.13
2023-11-17T23:37:44.184Z,100322.72
2023-11-17T23:40:17.864Z,100316.31
2023-11-17T23:42:49.944Z,100317.31
2023-11-17T23:45:18.713Z,100327.81
2023-11-17T23:47:46.832Z,100311.41
2023-11-17T23:50:14.245Z,100316.13
2023-11-17T23:52:42.024Z,100330.00
2023-11-17T23:55:10.132Z,100326.59
2023-11-17T23:57:37.457Z,100329.06
